Terminal Aerodrome Forecast
Issued by NWS Newport/Morehead City, NC

Home | Current Version | Previous Version | Graphics & Text | Print | Product List | Glossary Off
Versions: 1 2 3 4 5 6 7 8 9 10 11 12 13 14 15

000
FTUS42 KMHX 012300
TAFEWN
TAF
KEWN 012321Z 0200/0224 11007KT P6SM VCSH OVC015
     FM020800 12004KT 3SM BR VCSH BKN007 OVC025
     FM021300 15008KT 5SM -SHRA SCT007 OVC025
     FM021800 13005KT 6SM -SHRA OVC030=

USA.gov is the U.S. government's official web portal to all federal, state and local government web resources and services.